createdAt,value
2022-09-16T00:00:09.878Z,3.90
2022-09-16T00:03:07.622Z,4.00
2022-09-16T00:05:57.758Z,4.30
2022-09-16T00:08:47.897Z,4.10
2022-09-16T00:11:37.964Z,4.10
2022-09-16T00:14:30.146Z,3.40
2022-09-16T00:17:20.060Z,3.70
2022-09-16T00:20:10.490Z,3.90
2022-09-16T00:23:00.755Z,3.80
2022-09-16T00:25:53.938Z,3.40
2022-09-16T00:28:44.204Z,3.50
2022-09-16T00:31:35.349Z,3.60
2022-09-16T00:34:25.366Z,3.50
2022-09-16T00:37:15.328Z,3.60
2022-09-16T00:40:06.922Z,3.40
2022-09-16T00:42:56.959Z,3.70
2022-09-16T00:45:49.806Z,3.30
2022-09-16T00:48:39.780Z,3.80
2022-09-16T00:51:31.385Z,3.30
2022-09-16T00:54:21.416Z,3.50
2022-09-16T00:57:12.309Z,3.50
2022-09-16T01:00:04.112Z,3.70
2022-09-16T01:02:54.382Z,3.20
2022-09-16T01:05:44.875Z,3.40
2022-09-16T01:08:34.871Z,3.10
2022-09-16T01:11:25.479Z,3.60
2022-09-16T01:14:33.995Z,3.30
2022-09-16T01:17:33.742Z,3.60
2022-09-16T01:20:59.793Z,3.50
2022-09-16T01:24:29.296Z,3.70
2022-09-16T01:27:58.431Z,3.70
2022-09-16T01:31:03.580Z,3.80
2022-09-16T01:33:58.080Z,3.80
2022-09-16T01:36:51.315Z,3.60
2022-09-16T01:39:49.681Z,3.60
2022-09-16T01:42:46.280Z,3.70
2022-09-16T01:48:32.541Z,4.00
2022-09-16T01:51:25.753Z,3.90
2022-09-16T01:54:20.700Z,4.40
2022-09-16T01:57:13.707Z,4.40
2022-09-16T02:00:07.250Z,4.00
2022-09-16T02:02:59.400Z,4.10
2022-09-16T02:05:53.628Z,4.00
2022-09-16T02:08:46.533Z,4.10
2022-09-16T02:11:37.245Z,4.20
2022-09-16T02:14:29.233Z,4.60
2022-09-16T02:17:21.305Z,5.00
2022-09-16T02:20:14.009Z,4.20
2022-09-16T02:23:06.737Z,4.00
2022-09-16T02:25:56.803Z,4.20
2022-09-16T02:28:48.404Z,4.00
2022-09-16T02:31:38.518Z,3.80
2022-09-16T02:34:31.385Z,4.20
2022-09-16T02:37:26.729Z,4.40
2022-09-16T02:40:20.102Z,3.90
2022-09-16T02:43:10.088Z,4.10
2022-09-16T02:46:08.006Z,4.10
2022-09-16T02:49:02.982Z,4.10
2022-09-16T02:51:58.598Z,4.20
2022-09-16T02:54:51.582Z,4.50
2022-09-16T02:57:41.661Z,4.00
2022-09-16T03:00:31.609Z,4.40
2022-09-16T03:03:21.593Z,4.50
2022-09-16T03:06:17.959Z,4.60
2022-09-16T03:09:10.572Z,3.90
2022-09-16T03:12:36.777Z,3.90
2022-09-16T03:15:50.186Z,4.20
2022-09-16T03:18:50.144Z,4.30
2022-09-16T03:21:46.672Z,3.90
2022-09-16T03:24:46.055Z,4.40
2022-09-16T03:27:40.934Z,3.70
2022-09-16T03:30:33.673Z,4.00
2022-09-16T03:33:27.854Z,4.00
2022-09-16T03:36:20.549Z,4.00
2022-09-16T03:39:11.094Z,4.10
2022-09-16T03:42:03.103Z,3.90
2022-09-16T03:44:53.384Z,4.00
2022-09-16T03:47:43.729Z,3.80
2022-09-16T03:50:34.003Z,3.70
2022-09-16T03:53:24.189Z,3.60
2022-09-16T03:56:14.648Z,4.20
2022-09-16T03:59:04.646Z,3.90
2022-09-16T04:01:55.623Z,4.00
2022-09-16T04:04:46.304Z,3.80
2022-09-16T04:07:36.240Z,4.00
2022-09-16T04:10:26.764Z,3.60
2022-09-16T04:13:16.697Z,3.70
2022-09-16T04:16:07.269Z,3.60
2022-09-16T04:18:57.313Z,3.70
2022-09-16T04:21:47.343Z,3.90
2022-09-16T04:24:37.481Z,3.90
2022-09-16T04:27:27.779Z,3.90
2022-09-16T04:30:19.879Z,4.00
2022-09-16T04:33:10.860Z,3.70
2022-09-16T04:36:09.704Z,4.10
2022-09-16T04:38:59.965Z,4.00
2022-09-16T04:41:50.363Z,4.30
2022-09-16T04:44:40.765Z,4.80
2022-09-16T04:47:30.970Z,4.70
2022-09-16T04:50:21.329Z,4.50
2022-09-16T04:53:11.700Z,4.40
2022-09-16T04:56:07.665Z,4.30
2022-09-16T04:59:00.506Z,4.40
2022-09-16T05:01:50.639Z,4.30
2022-09-16T05:04:40.681Z,4.10
2022-09-16T05:07:30.712Z,4.10
2022-09-16T05:10:20.810Z,3.80
2022-09-16T05:13:10.976Z,4.50
2022-09-16T05:16:07.610Z,4.00
2022-09-16T05:18:59.296Z,4.10
2022-09-16T05:21:49.614Z,3.50
2022-09-16T05:24:39.552Z,3.90
2022-09-16T05:27:32.355Z,4.00
2022-09-16T05:30:25.883Z,3.70
2022-09-16T05:33:17.009Z,4.10
2022-09-16T05:36:10.325Z,4.10
2022-09-16T05:42:10.757Z,4.50
2022-09-16T05:45:00.852Z,4.10
2022-09-16T05:47:53.683Z,4.50
2022-09-16T05:50:43.650Z,4.60
2022-09-16T05:53:34.621Z,4.30
2022-09-16T05:56:25.873Z,4.90
2022-09-16T05:59:16.355Z,4.60
2022-09-16T06:02:06.627Z,4.10
2022-09-16T06:04:59.812Z,4.30
2022-09-16T06:07:50.287Z,4.50
2022-09-16T06:10:41.585Z,4.80
2022-09-16T06:13:32.297Z,4.70
2022-09-16T06:16:23.286Z,4.50
2022-09-16T06:19:14.875Z,4.20
2022-09-16T06:22:05.357Z,4.30
2022-09-16T06:24:55.301Z,4.50
2022-09-16T06:27:45.389Z,4.30
2022-09-16T06:30:35.602Z,4.60
2022-09-16T06:33:27.760Z,4.50
2022-09-16T06:36:20.579Z,4.50
2022-09-16T06:39:13.904Z,4.50
2022-09-16T06:42:05.406Z,4.00
2022-09-16T06:45:07.422Z,3.80
2022-09-16T06:48:01.252Z,4.00
2022-09-16T06:50:57.520Z,4.20
2022-09-16T06:53:52.612Z,4.00
2022-09-16T06:56:44.119Z,3.40
2022-09-16T06:59:38.962Z,3.30
2022-09-16T07:02:32.648Z,2.70
2022-09-16T07:05:27.309Z,2.30
2022-09-16T07:08:20.202Z,3.40
2022-09-16T07:11:13.080Z,3.80
2022-09-16T07:14:04.494Z,3.80
2022-09-16T07:16:54.704Z,3.20
2022-09-16T07:19:45.323Z,3.00
2022-09-16T07:22:35.585Z,2.30
2022-09-16T07:25:26.584Z,2.60
2022-09-16T07:28:17.399Z,3.50
2022-09-16T07:31:10.289Z,3.00
2022-09-16T07:34:04.372Z,2.30
2022-09-16T07:36:56.523Z,3.90
2022-09-16T07:39:46.696Z,3.00
2022-09-16T07:42:36.779Z,3.00
2022-09-16T07:45:27.024Z,3.10
2022-09-16T07:48:17.093Z,3.20
2022-09-16T07:51:09.958Z,3.80
2022-09-16T07:54:01.742Z,3.30
2022-09-16T07:56:52.019Z,4.90
2022-09-16T07:59:42.293Z,3.50
2022-09-16T08:02:32.413Z,2.60
2022-09-16T08:05:25.870Z,3.10
2022-09-16T08:08:16.141Z,2.90
2022-09-16T08:11:07.497Z,2.60
2022-09-16T08:13:59.532Z,4.50
2022-09-16T08:16:50.895Z,3.40
2022-09-16T08:19:47.623Z,3.20
2022-09-16T08:22:38.811Z,3.40
2022-09-16T08:25:30.527Z,3.40
2022-09-16T08:28:20.962Z,4.10
2022-09-16T08:31:11.162Z,4.90
2022-09-16T08:34:02.893Z,4.70
2022-09-16T08:36:53.182Z,6.60
2022-09-16T08:39:43.517Z,5.90
2022-09-16T08:42:53.677Z,5.20
2022-09-16T08:45:49.501Z,5.70
2022-09-16T08:48:47.400Z,4.40
2022-09-16T08:51:37.377Z,5.70
2022-09-16T08:54:31.238Z,8.30
2022-09-16T08:57:22.813Z,9.60
2022-09-16T09:00:17.526Z,8.60
2022-09-16T09:03:16.510Z,8.10
2022-09-16T09:06:17.041Z,8.40
2022-09-16T09:09:16.769Z,8.70
2022-09-16T09:12:10.987Z,8.00
2022-09-16T09:15:28.286Z,8.50
2022-09-16T09:18:29.910Z,7.90
2022-09-16T09:21:27.536Z,8.00
2022-09-16T09:24:31.937Z,7.60
2022-09-16T09:27:26.795Z,8.10
2022-09-16T09:30:20.445Z,8.10
2022-09-16T09:33:44.823Z,7.90
2022-09-16T09:36:48.145Z,8.00
2022-09-16T09:39:46.431Z,8.00
2022-09-16T09:42:39.086Z,8.10
2022-09-16T09:45:31.687Z,8.10
2022-09-16T09:48:24.416Z,8.00
2022-09-16T09:51:21.039Z,9.00
2022-09-16T09:54:25.710Z,8.30
2022-09-16T09:57:27.607Z,8.00
2022-09-16T10:00:20.897Z,8.60
2022-09-16T10:03:14.521Z,8.10
2022-09-16T10:06:06.864Z,7.60
2022-09-16T10:08:58.851Z,8.30
2022-09-16T10:11:55.113Z,9.10
2022-09-16T10:14:50.086Z,8.40
2022-09-16T10:17:50.023Z,8.90
2022-09-16T10:20:43.928Z,9.30
2022-09-16T10:23:34.894Z,8.60
2022-09-16T10:26:26.582Z,8.60
2022-09-16T10:29:19.223Z,8.00
2022-09-16T10:32:12.218Z,8.40
2022-09-16T10:35:09.961Z,7.40
2022-09-16T10:38:04.209Z,6.00
2022-09-16T10:40:57.323Z,6.40
2022-09-16T10:43:51.229Z,6.40
2022-09-16T10:46:52.008Z,6.20
2022-09-16T10:49:51.402Z,5.40
2022-09-16T10:52:44.876Z,4.70
2022-09-16T10:55:37.501Z,5.20
2022-09-16T10:58:30.337Z,4.80
2022-09-16T11:01:42.567Z,4.40
2022-09-16T11:04:57.181Z,3.80
2022-09-16T11:07:52.528Z,3.80
2022-09-16T11:10:48.308Z,3.30
2022-09-16T11:13:46.383Z,3.40
2022-09-16T11:17:02.636Z,3.00
2022-09-16T11:20:14.078Z,2.70
2022-09-16T11:23:09.249Z,2.80
2022-09-16T11:26:06.443Z,3.20
2022-09-16T11:29:08.994Z,3.40
2022-09-16T11:32:03.167Z,3.90
2022-09-16T11:35:22.269Z,3.90
2022-09-16T11:38:21.484Z,3.50
2022-09-16T11:41:16.072Z,3.80
2022-09-16T11:44:27.131Z,4.10
2022-09-16T11:47:42.048Z,3.60
2022-09-16T11:50:44.683Z,4.20
2022-09-16T11:53:59.938Z,4.70
2022-09-16T11:56:52.927Z,4.30
2022-09-16T11:59:48.322Z,4.70
2022-09-16T12:02:44.288Z,4.60
2022-09-16T12:05:39.401Z,4.50
2022-09-16T12:08:31.450Z,4.80
2022-09-16T12:11:26.533Z,4.60
2022-09-16T12:14:20.380Z,4.20
2022-09-16T12:17:14.564Z,4.20
2022-09-16T12:20:10.830Z,4.50
2022-09-16T12:23:05.976Z,4.20
2022-09-16T12:26:02.539Z,4.20
2022-09-16T12:28:56.050Z,4.50
2022-09-16T12:31:47.852Z,4.40
2022-09-16T12:34:42.623Z,4.20
2022-09-16T12:37:39.096Z,4.20
2022-09-16T12:40:31.234Z,4.40
2022-09-16T12:43:36.369Z,4.70
2022-09-16T12:47:00.027Z,4.90
2022-09-16T12:50:31.433Z,4.90
2022-09-16T12:54:02.176Z,4.50
2022-09-16T12:57:22.439Z,4.10
2022-09-16T13:00:21.364Z,4.20
2022-09-16T13:03:16.136Z,4.30
2022-09-16T13:06:14.656Z,4.00
2022-09-16T13:09:22.388Z,4.40
2022-09-16T13:12:39.611Z,4.10
2022-09-16T13:15:40.839Z,4.10
2022-09-16T13:18:51.526Z,4.30
2022-09-16T13:21:44.377Z,4.30
2022-09-16T13:24:38.082Z,4.10
2022-09-16T13:27:33.907Z,4.00
2022-09-16T13:30:33.677Z,3.70
2022-09-16T13:33:36.340Z,3.80
2022-09-16T13:36:33.408Z,3.90
2022-09-16T13:39:32.059Z,4.20
2022-09-16T13:42:24.211Z,4.40
2022-09-16T13:45:34.481Z,4.40
2022-09-16T13:48:25.649Z,4.10
2022-09-16T13:51:18.258Z,4.10
2022-09-16T13:54:29.607Z,3.70
2022-09-16T13:57:52.331Z,4.20
2022-09-16T14:00:58.355Z,4.00
2022-09-16T14:03:55.951Z,3.80
2022-09-16T14:06:59.487Z,4.20
2022-09-16T14:09:59.326Z,4.20
2022-09-16T14:12:59.863Z,4.00
2022-09-16T14:15:51.489Z,4.40
2022-09-16T14:18:49.083Z,3.90
2022-09-16T14:21:39.081Z,4.10
2022-09-16T14:24:36.552Z,4.10
2022-09-16T14:27:33.525Z,3.90
2022-09-16T14:30:23.601Z,4.40
2022-09-16T14:33:14.111Z,4.10
2022-09-16T14:36:11.477Z,3.90
2022-09-16T14:39:04.104Z,4.50
2022-09-16T14:41:56.732Z,4.10
2022-09-16T14:44:49.539Z,3.90
2022-09-16T14:47:51.038Z,4.00
2022-09-16T14:50:45.622Z,4.50
2022-09-16T14:53:38.169Z,4.60
2022-09-16T14:56:31.670Z,5.00
2022-09-16T14:59:36.852Z,4.90
2022-09-16T15:07:11.908Z,3.20
2022-09-16T15:10:05.469Z,2.90
2022-09-16T15:13:00.288Z,2.60
2022-09-16T15:15:56.540Z,2.80
2022-09-16T15:18:57.780Z,2.60
2022-09-16T15:21:48.450Z,2.50
2022-09-16T15:24:40.600Z,2.60
2022-09-16T15:27:34.811Z,2.50
2022-09-16T15:30:29.205Z,2.70
2022-09-16T15:33:35.967Z,2.60
2022-09-16T15:36:48.445Z,2.60
2022-09-16T15:39:39.473Z,2.00
2022-09-16T15:42:29.990Z,2.20
2022-09-16T15:45:21.488Z,1.70
2022-09-16T15:48:17.181Z,2.70
2022-09-16T15:51:10.082Z,2.40
2022-09-16T15:54:05.330Z,2.90
2022-09-16T15:57:01.597Z,4.30
2022-09-16T16:00:11.949Z,2.40
2022-09-16T16:03:07.459Z,2.30
2022-09-16T16:06:05.950Z,2.40
2022-09-16T16:11:56.971Z,2.00
2022-09-16T16:14:47.629Z,1.70
2022-09-16T16:17:40.742Z,1.90
2022-09-16T16:20:33.607Z,1.90
2022-09-16T16:23:25.592Z,1.70
2022-09-16T16:26:19.365Z,1.90
2022-09-16T16:29:13.922Z,1.70
2022-09-16T16:32:12.774Z,2.00
2022-09-16T16:35:08.291Z,2.00
2022-09-16T16:37:58.994Z,1.90
2022-09-16T16:40:52.285Z,1.90
2022-09-16T16:43:42.886Z,1.80
2022-09-16T16:46:33.901Z,1.90
2022-09-16T16:49:24.375Z,2.30
2022-09-16T16:52:14.869Z,1.70
2022-09-16T16:55:10.245Z,1.70
2022-09-16T16:58:00.701Z,1.90
2022-09-16T17:00:53.506Z,1.70
2022-09-16T17:03:47.917Z,1.80
2022-09-16T17:06:40.322Z,1.40
2022-09-16T17:09:31.218Z,1.70
2022-09-16T17:12:25.790Z,1.50
2022-09-16T17:15:18.098Z,2.20
2022-09-16T17:18:08.620Z,2.30
2022-09-16T17:21:04.361Z,2.30
2022-09-16T17:23:57.979Z,2.00
2022-09-16T17:26:49.332Z,1.80
2022-09-16T17:29:53.129Z,1.70
2022-09-16T17:32:45.266Z,1.60
2022-09-16T17:35:39.767Z,1.40
2022-09-16T17:38:32.179Z,1.70
2022-09-16T17:41:26.665Z,1.90
2022-09-16T17:44:18.391Z,2.20
2022-09-16T17:47:10.003Z,2.00
2022-09-16T17:50:04.762Z,2.20
2022-09-16T17:53:01.383Z,2.10
2022-09-16T17:58:48.087Z,1.90
2022-09-16T18:01:41.404Z,2.00
2022-09-16T18:04:32.037Z,2.10
2022-09-16T18:07:28.276Z,2.40
2022-09-16T18:10:19.844Z,2.40
2022-09-16T18:13:10.465Z,2.40
2022-09-16T18:16:05.334Z,2.90
2022-09-16T18:18:57.140Z,4.00
2022-09-16T18:21:48.028Z,3.20
2022-09-16T18:24:39.108Z,3.70
2022-09-16T18:27:29.230Z,3.80
2022-09-16T18:30:19.378Z,3.90
2022-09-16T18:33:09.582Z,4.90
2022-09-16T18:36:04.185Z,4.80
2022-09-16T18:38:54.371Z,4.30
2022-09-16T18:41:45.031Z,4.30
2022-09-16T18:44:38.956Z,5.00
2022-09-16T18:47:29.048Z,4.30
2022-09-16T18:50:19.229Z,4.50
2022-09-16T18:53:09.261Z,4.60
2022-09-16T18:56:00.848Z,4.70
2022-09-16T18:59:17.087Z,4.90
2022-09-16T19:02:03.329Z,5.10
2022-09-16T19:04:56.652Z,4.90
2022-09-16T19:07:46.827Z,5.00
2022-09-16T19:10:38.628Z,5.60
2022-09-16T19:13:28.775Z,5.50
2022-09-16T19:16:19.494Z,5.30
2022-09-16T19:19:14.851Z,5.60
2022-09-16T19:22:05.431Z,6.10
2022-09-16T19:24:55.449Z,6.00
2022-09-16T19:27:46.258Z,6.90
2022-09-16T19:30:36.542Z,6.90
2022-09-16T19:33:26.676Z,6.70
2022-09-16T19:36:19.119Z,6.90
2022-09-16T19:39:09.441Z,7.00
2022-09-16T19:42:02.973Z,6.90
2022-09-16T19:44:53.518Z,7.00
2022-09-16T19:47:43.520Z,6.40
2022-09-16T19:50:33.792Z,7.50
2022-09-16T19:53:24.231Z,6.90
2022-09-16T19:56:15.719Z,7.10
2022-09-16T19:59:07.097Z,7.00
2022-09-16T20:01:57.825Z,7.50
2022-09-16T20:04:47.864Z,6.90
2022-09-16T20:07:39.269Z,7.30
2022-09-16T20:10:34.299Z,6.80
2022-09-16T20:13:24.659Z,7.50
2022-09-16T20:16:15.251Z,7.00
2022-09-16T20:19:07.579Z,7.50
2022-09-16T20:21:57.669Z,7.60
2022-09-16T20:25:01.039Z,7.20
2022-09-16T20:27:57.653Z,7.00
2022-09-16T20:30:48.343Z,7.60
2022-09-16T20:33:38.281Z,8.00
2022-09-16T20:36:30.380Z,7.60
2022-09-16T20:39:21.588Z,7.20
2022-09-16T20:42:12.342Z,7.00
2022-09-16T20:45:03.372Z,7.20
2022-09-16T20:47:53.330Z,7.10
2022-09-16T20:50:43.239Z,7.80
2022-09-16T20:53:33.632Z,7.70
2022-09-16T20:56:23.692Z,8.70
2022-09-16T20:59:15.421Z,8.30
2022-09-16T21:02:08.272Z,8.20
2022-09-16T21:05:03.287Z,7.80
2022-09-16T21:07:53.199Z,7.80
2022-09-16T21:10:43.285Z,8.40
2022-09-16T21:13:33.604Z,7.90
2022-09-16T21:16:24.338Z,7.80
2022-09-16T21:19:14.472Z,7.60
2022-09-16T21:22:04.719Z,7.90
2022-09-16T21:24:54.807Z,7.50
2022-09-16T21:27:44.828Z,7.80
2022-09-16T21:30:34.739Z,8.00
2022-09-16T21:33:25.568Z,7.50
2022-09-16T21:36:15.541Z,7.40
2022-09-16T21:39:06.077Z,7.40
2022-09-16T21:41:56.049Z,7.10
2022-09-16T21:44:46.476Z,7.60
2022-09-16T21:47:36.713Z,7.60
2022-09-16T21:50:26.696Z,7.30
2022-09-16T21:53:16.634Z,7.80
2022-09-16T21:56:09.059Z,7.30
2022-09-16T21:58:59.148Z,7.20
2022-09-16T22:01:49.541Z,7.10
2022-09-16T22:04:39.993Z,6.90
2022-09-16T22:07:29.910Z,7.30
2022-09-16T22:10:20.891Z,7.70
2022-09-16T22:13:10.812Z,6.90
2022-09-16T22:16:01.752Z,6.90
2022-09-16T22:18:51.799Z,7.40
2022-09-16T22:21:45.973Z,7.10
2022-09-16T22:24:35.938Z,6.50
2022-09-16T22:27:27.445Z,6.30
2022-09-16T22:30:17.815Z,7.20
2022-09-16T22:33:08.045Z,6.70
2022-09-16T22:35:58.780Z,6.40
2022-09-16T22:38:49.168Z,6.30
2022-09-16T22:41:39.154Z,6.60
2022-09-16T22:44:29.073Z,6.30
2022-09-16T22:47:19.004Z,6.60
2022-09-16T22:50:10.500Z,6.10
2022-09-16T22:53:00.408Z,6.50
2022-09-16T22:55:54.399Z,5.70
2022-09-16T22:58:44.625Z,5.90
2022-09-16T23:01:36.623Z,6.10
2022-09-16T23:04:29.860Z,6.10
2022-09-16T23:07:20.426Z,5.90
2022-09-16T23:10:11.616Z,6.10
2022-09-16T23:13:01.538Z,6.10
2022-09-16T23:15:53.200Z,5.90
2022-09-16T23:18:43.791Z,6.30
2022-09-16T23:21:33.767Z,6.20
2022-09-16T23:24:24.168Z,5.90
2022-09-16T23:27:14.077Z,5.60
2022-09-16T23:30:05.100Z,5.90
2022-09-16T23:32:54.995Z,5.30
2022-09-16T23:35:49.100Z,5.50
2022-09-16T23:38:40.198Z,5.60
2022-09-16T23:41:31.453Z,5.60
2022-09-16T23:44:21.964Z,4.70
2022-09-16T23:47:12.236Z,5.30
2022-09-16T23:50:02.116Z,5.30
2022-09-16T23:52:52.021Z,5.10
2022-09-16T23:55:45.077Z,5.30
2022-09-16T23:58:35.337Z,5.10
